Time;durP1;ratioP1;P1;durP2;ratioP2;P2;SDS_P1;SDS_P2;PMS_P1;PMS_P2;Temp;Humidity;BMP_temperature;BMP_pressure;BME280_temperature;BME280_humidity;BME280_pressure;Samples;Min_cycle;Max_cycle;Signal;HPM_P1;HPM_P2
2021/01/22 00:01:16;;;;;;;19.10;9.53;;;;;;;11.48;43.75;98653.59;5092781;28;20041;-80
2021/01/22 00:03:41;;;;;;;24.02;11.38;;;;;;;11.47;43.97;98656.72;5093363;28;20036;-77
2021/01/22 00:06:07;;;;;;;19.27;8.77;;;;;;;11.62;43.32;98656.53;5093906;28;20505;-81
2021/01/22 00:08:32;;;;;;;15.87;7.27;;;;;;;11.56;43.52;98652.56;5094116;28;20040;-76
2021/01/22 00:10:58;;;;;;;17.57;7.43;;;;;;;11.53;43.63;98657.97;5093293;28;20059;-80
2021/01/22 00:13:24;;;;;;;15.23;7.10;;;;;;;11.56;43.25;98659.97;5092603;28;20083;-76
2021/01/22 00:15:49;;;;;;;17.83;8.30;;;;;;;11.61;43.17;98651.44;5093013;28;20074;-79
2021/01/22 00:18:15;;;;;;;13.77;7.03;;;;;;;11.50;43.54;98656.00;5093120;28;20044;-78
2021/01/22 00:20:40;;;;;;;15.83;9.37;;;;;;;11.38;43.97;98659.72;5093434;28;20031;-77
2021/01/22 00:23:06;;;;;;;47.70;21.00;;;;;;;11.23;44.27;98657.94;5092680;28;20036;-78
2021/01/22 00:25:31;;;;;;;19.97;10.07;;;;;;;11.37;43.91;98664.41;5092664;28;20067;-79
2021/01/22 00:27:57;;;;;;;15.00;8.20;;;;;;;11.27;44.08;98662.31;5092834;28;20032;-78
2021/01/22 00:30:23;;;;;;;14.67;7.73;;;;;;;11.30;43.79;98663.50;5091453;28;20028;-77
2021/01/22 00:32:48;;;;;;;34.13;16.60;;;;;;;11.26;44.06;98663.47;5074859;28;20028;-78
2021/01/22 00:35:14;;;;;;;21.70;10.70;;;;;;;10.93;44.88;98666.03;5092244;28;20077;-77
2021/01/22 00:37:39;;;;;;;38.03;18.63;;;;;;;11.15;44.49;98672.66;5093289;28;20028;-77
2021/01/22 00:40:07;;;;;;;21.37;10.13;;;;;;;11.11;44.51;98678.06;5092089;28;20028;-79
2021/01/22 00:42:33;;;;;;;19.00;9.70;;;;;;;11.20;44.25;98677.81;5091812;28;20031;-78
2021/01/22 00:44:59;;;;;;;97.07;38.70;;;;;;;11.34;43.69;98678.03;5093048;28;20036;-77
2021/01/22 00:47:25;;;;;;;39.03;19.23;;;;;;;11.20;44.09;98675.88;5093350;28;20479;-77
2021/01/22 00:49:51;;;;;;;29.13;13.00;;;;;;;11.28;44.01;98679.50;5093404;28;20032;-76
2021/01/22 00:52:17;;;;;;;15.07;8.30;;;;;;;11.18;44.31;98682.84;5092328;28;20028;-81
2021/01/22 00:54:43;;;;;;;30.05;14.25;;;;;;;11.04;44.39;98686.94;5092079;28;20440;-77
2021/01/22 00:57:08;;;;;;;90.87;40.37;;;;;;;11.15;44.11;98667.19;5092482;28;20028;-77
2021/01/22 00:59:34;;;;;;;52.20;21.07;;;;;;;11.31;43.84;98681.47;5091970;28;20054;-77
2021/01/22 01:01:59;;;;;;;48.47;18.93;;;;;;;11.26;43.89;98676.31;5092279;28;20032;-77
2021/01/22 01:04:25;;;;;;;40.50;15.73;;;;;;;11.11;44.27;98678.84;5093034;28;20063;-78
2021/01/22 01:06:50;;;;;;;26.57;12.70;;;;;;;11.19;44.09;98674.28;5092265;28;20140;-81
2021/01/22 01:09:16;;;;;;;17.30;8.73;;;;;;;11.29;43.49;98681.84;5074689;28;20028;-80
2021/01/22 01:11:43;;;;;;;15.50;9.83;;;;;;;11.25;43.60;98677.47;5092946;28;20052;-79
2021/01/22 01:14:09;;;;;;;15.67;9.60;;;;;;;11.33;43.59;98673.69;5092970;28;20028;-77
2021/01/22 01:16:34;;;;;;;18.10;9.87;;;;;;;11.14;44.05;98682.00;5091906;28;20032;-77
2021/01/22 01:19:00;;;;;;;39.83;26.17;;;;;;;11.14;43.92;98679.28;5092780;28;20031;-80
2021/01/22 01:21:26;;;;;;;23.40;8.70;;;;;;;11.17;43.93;98681.25;5091294;28;20050;-80
2021/01/22 01:23:52;;;;;;;41.93;26.30;;;;;;;11.06;44.01;98679.16;5092507;28;20561;-77
2021/01/22 01:26:17;;;;;;;22.57;7.83;;;;;;;11.17;43.60;98681.25;5092922;28;20103;-80
2021/01/22 01:28:43;;;;;;;20.70;9.90;;;;;;;11.04;43.99;98677.94;5092115;28;20028;-81
2021/01/22 01:31:08;;;;;;;17.67;9.67;;;;;;;11.11;43.75;98684.31;5091528;28;20031;-80
2021/01/22 01:33:34;;;;;;;28.03;11.97;;;;;;;11.15;43.63;98687.09;5092681;28;20028;-78
2021/01/22 01:36:01;;;;;;;16.70;7.87;;;;;;;11.03;44.10;98688.09;5091995;28;20038;-81
2021/01/22 01:38:28;;;;;;;21.27;9.67;;;;;;;10.85;44.36;98692.47;5092078;28;20028;-77
2021/01/22 01:40:53;;;;;;;12.37;8.63;;;;;;;10.87;44.48;98700.28;5092117;28;20526;-77
2021/01/22 01:43:19;;;;;;;15.03;7.47;;;;;;;10.96;43.89;98695.38;5091962;28;20126;-78
2021/01/22 01:45:44;;;;;;;13.50;6.17;;;;;;;10.88;44.20;98693.66;5092610;28;20378;-81
2021/01/22 01:48:11;;;;;;;11.30;5.73;;;;;;;10.79;44.58;98704.84;5090430;28;20081;-77
2021/01/22 01:50:38;;;;;;;16.47;6.77;;;;;;;10.80;44.58;98704.47;5090868;28;20032;-81
2021/01/22 01:53:05;;;;;;;13.77;6.77;;;;;;;10.95;43.89;98705.50;5074555;28;20089;-77
2021/01/22 01:55:32;;;;;;;13.47;6.23;;;;;;;10.98;43.95;98704.78;5090365;28;20032;-80
2021/01/22 01:58:01;;;;;;;18.83;7.20;;;;;;;10.99;44.00;98717.28;5092483;28;20481;-77
2021/01/22 02:00:26;;;;;;;16.70;8.97;;;;;;;10.95;44.30;98713.69;5090592;28;20032;-77
2021/01/22 02:02:52;;;;;;;14.37;6.40;;;;;;;10.89;44.27;98708.94;5090030;28;20470;-79
2021/01/22 02:05:17;;;;;;;13.87;6.47;;;;;;;11.12;43.67;98706.97;5090939;28;20043;-77
2021/01/22 02:07:43;;;;;;;16.70;6.57;;;;;;;10.78;44.67;98703.25;5091125;28;20035;-79
2021/01/22 02:10:10;;;;;;;15.43;7.30;;;;;;;10.83;44.55;98711.16;5092387;28;20099;-79
2021/01/22 02:12:37;;;;;;;11.67;5.97;;;;;;;10.77;44.63;98707.16;5099157;28;20039;-80
2021/01/22 02:15:04;;;;;;;13.60;6.60;;;;;;;10.91;44.26;98709.34;5091668;28;20042;-79
2021/01/22 02:17:30;;;;;;;14.00;5.93;;;;;;;11.01;44.06;98704.06;5092208;28;20471;-79
2021/01/22 02:20:23;;;;;;;14.40;7.07;;;;;;;11.04;43.65;98716.22;5092369;28;20110;-79
2021/01/22 02:22:53;;;;;;;14.87;7.27;;;;;;;11.08;43.72;98714.31;5091550;28;20471;-80
2021/01/22 02:25:20;;;;;;;;;;;;;;;10.40;45.15;98715.03;5092331;28;20474;-80
2021/01/22 02:27:47;;;;;;;14.00;5.73;;;;;;;10.71;44.47;98723.03;5074061;28;19912;-80
2021/01/22 02:30:13;;;;;;;14.73;7.23;;;;;;;10.87;44.21;98725.66;5088230;28;20036;-80
2021/01/22 02:32:42;;;;;;;12.27;6.23;;;;;;;10.91;43.96;98732.00;5090931;28;20054;-77
2021/01/22 02:35:10;;;;;;;16.40;7.13;;;;;;;10.95;44.03;98727.38;5092371;28;20070;-80
2021/01/22 02:37:38;;;;;;;17.03;8.80;;;;;;;11.07;43.62;98731.88;5095172;28;20414;-77
2021/01/22 02:40:09;;;;;;;11.47;5.83;;;;;;;10.97;43.78;98725.06;5094984;28;20031;-77
2021/01/22 02:42:37;;;;;;;10.83;5.73;;;;;;;10.83;44.18;98724.81;5095849;28;20070;-77
2021/01/22 02:45:05;;;;;;;12.27;6.30;;;;;;;10.92;43.90;98730.03;5094633;28;20056;-77
2021/01/22 02:47:31;;;;;;;12.83;6.03;;;;;;;10.53;44.95;98725.44;5095900;28;20028;-77
2021/01/22 02:49:57;;;;;;;16.20;7.33;;;;;;;10.38;45.41;98734.50;5095415;28;20360;-79
2021/01/22 02:52:22;;;;;;;15.30;7.17;;;;;;;10.48;45.17;98733.94;5095635;28;20024;-79
2021/01/22 02:54:50;;;;;;;16.17;6.73;;;;;;;10.32;45.64;98741.41;5094249;28;20453;-76
2021/01/22 02:57:34;;;;;;;14.50;6.30;;;;;;;10.12;45.93;98746.03;5095697;28;20020;-79
2021/01/22 03:00:02;;;;;;;15.33;7.47;;;;;;;10.29;45.85;98750.31;5093767;28;20030;-76
2021/01/22 03:03:02;;;;;;;17.67;8.07;;;;;;;10.20;45.75;98744.25;5094831;28;20024;-78
2021/01/22 03:05:31;;;;;;;15.27;6.75;;;;;;;10.50;45.17;98741.75;5094543;28;20036;-80
2021/01/22 03:08:25;;;;;;;15.10;6.87;;;;;;;10.38;45.25;98742.72;5095101;28;20505;-76
2021/01/22 03:10:53;;;;;;;11.63;6.80;;;;;;;10.41;45.23;98747.44;5076123;28;20032;-77
2021/01/22 03:13:19;;;;;;;11.17;6.70;;;;;;;10.28;45.68;98755.00;5094105;28;20524;-77
2021/01/22 03:15:46;;;;;;;17.07;6.37;;;;;;;10.26;45.68;98765.47;5094756;28;20115;-77
2021/01/22 03:18:21;;;;;;;18.47;7.40;;;;;;;10.22;45.58;98756.44;5076585;28;20508;-77
2021/01/22 03:20:48;;;;;;;13.20;7.27;;;;;;;10.30;45.66;98765.56;5094526;28;20032;-77
2021/01/22 03:23:17;;;;;;;19.67;7.10;;;;;;;10.45;45.20;98756.50;5095108;28;20031;-76
2021/01/22 03:25:43;;;;;;;15.50;7.30;;;;;;;10.46;45.41;98755.34;5095211;28;20616;-81
2021/01/22 03:28:10;;;;;;;13.17;6.27;;;;;;;10.35;45.32;98759.78;5094287;28;20027;-80
2021/01/22 03:30:36;;;;;;;12.07;6.70;;;;;;;10.32;45.46;98765.97;5093717;28;20212;-79
2021/01/22 03:33:03;;;;;;;13.07;6.53;;;;;;;10.41;45.02;98766.53;5094645;28;20027;-79
2021/01/22 03:35:30;;;;;;;15.00;6.83;;;;;;;10.40;45.06;98764.19;5092915;28;20024;-77
2021/01/22 03:37:56;;;;;;;13.63;5.90;;;;;;;10.31;45.24;98769.06;5092714;28;20097;-77
2021/01/22 03:40:22;;;;;;;16.67;6.27;;;;;;;10.22;45.79;98772.00;5092006;28;20028;-77
2021/01/22 03:42:47;;;;;;;16.10;6.53;;;;;;;10.17;45.73;98766.81;5094179;28;20529;-78
2021/01/22 03:45:14;;;;;;;14.17;6.67;;;;;;;10.36;45.34;98772.31;5075795;28;20075;-79
2021/01/22 03:47:40;;;;;;;13.80;6.17;;;;;;;10.34;45.24;98769.13;5094651;28;20032;-81
2021/01/22 03:50:06;;;;;;;12.67;6.13;;;;;;;10.43;45.11;98772.47;5093886;28;20024;-77
2021/01/22 03:52:32;;;;;;;12.80;6.57;;;;;;;10.55;44.87;98772.28;5094107;28;20032;-77
2021/01/22 03:54:57;;;;;;;14.70;6.73;;;;;;;10.82;43.90;98775.16;5075791;28;20024;-81
2021/01/22 03:57:23;;;;;;;18.50;7.40;;;;;;;10.82;43.95;98762.28;5094443;28;20031;-78
2021/01/22 03:59:48;;;;;;;16.20;6.50;;;;;;;10.94;43.40;98764.03;5093626;28;20028;-81
2021/01/22 04:02:14;;;;;;;12.53;7.50;;;;;;;10.52;44.39;98778.50;5092957;28;20028;-78
2021/01/22 04:04:40;;;;;;;17.50;5.87;;;;;;;10.42;44.85;98779.03;5092684;28;20040;-77
2021/01/22 04:07:06;;;;;;;16.90;6.97;;;;;;;10.39;44.95;98789.91;5093110;28;20035;-80
2021/01/22 04:09:31;;;;;;;20.67;7.43;;;;;;;10.34;45.11;98785.50;5092378;28;20402;-77
2021/01/22 04:11:57;;;;;;;10.90;6.27;;;;;;;10.45;44.56;98780.28;5093824;28;20051;-77
2021/01/22 04:14:24;;;;;;;18.70;8.63;;;;;;;10.38;44.85;98789.13;5094167;28;20043;-77
2021/01/22 04:16:49;;;;;;;14.50;6.60;;;;;;;10.42;44.75;98779.03;5092100;28;20489;-81
2021/01/22 04:19:15;;;;;;;19.03;7.33;;;;;;;10.55;44.22;98782.44;5093885;28;20032;-80
2021/01/22 04:21:40;;;;;;;14.93;7.70;;;;;;;10.59;44.32;98775.09;5092423;28;20084;-80
2021/01/22 04:24:06;;;;;;;18.47;7.03;;;;;;;10.59;44.25;98787.97;5093030;28;20024;-77
2021/01/22 04:26:32;;;;;;;13.83;6.57;;;;;;;10.60;44.01;98790.34;5092401;28;20028;-80
2021/01/22 04:28:57;;;;;;;16.17;6.43;;;;;;;10.55;44.42;98798.81;5093698;28;20085;-78
2021/01/22 04:31:23;;;;;;;13.13;6.33;;;;;;;10.46;44.20;98799.03;5090704;28;20039;-79
2021/01/22 04:33:49;;;;;;;12.50;6.00;;;;;;;10.36;44.60;98799.63;5092116;28;20081;-81
2021/01/22 04:36:15;;;;;;;16.87;6.73;;;;;;;10.38;44.54;98797.31;5093681;28;20429;-77
2021/01/22 04:38:41;;;;;;;11.87;6.10;;;;;;;10.46;44.52;98795.50;5093784;28;20436;-76
2021/01/22 04:41:07;;;;;;;12.77;6.87;;;;;;;10.47;44.35;98789.69;5093753;28;20101;-79
2021/01/22 04:43:32;;;;;;;15.93;7.50;;;;;;;10.46;44.39;98793.56;5091963;28;20028;-80
2021/01/22 04:46:00;;;;;;;13.83;6.97;;;;;;;10.47;44.33;98795.16;5092001;28;20035;-81
2021/01/22 04:48:28;;;;;;;15.43;6.40;;;;;;;10.48;44.40;98799.47;5093011;28;20077;-77
2021/01/22 04:50:58;;;;;;;10.80;5.73;;;;;;;10.60;44.15;98792.28;5092646;28;20035;-80
2021/01/22 04:53:27;;;;;;;19.80;7.07;;;;;;;10.60;43.83;98797.75;5092295;28;20028;-77
2021/01/22 04:55:54;;;;;;;15.05;6.13;;;;;;;10.46;44.41;98790.84;5093249;28;20030;-78
2021/01/22 04:58:23;;;;;;;12.13;5.30;;;;;;;10.40;44.42;98797.72;5092682;28;20024;-77
2021/01/22 05:00:49;;;;;;;11.17;6.17;;;;;;;10.45;44.42;98797.47;5091532;28;20046;-81
2021/01/22 05:03:17;;;;;;;18.77;6.33;;;;;;;10.45;44.28;98796.66;5093361;28;20107;-77
2021/01/22 05:05:43;;;;;;;13.57;5.97;;;;;;;10.36;44.62;98801.56;5092713;28;20034;-78
2021/01/22 05:08:09;;;;;;;17.37;5.70;;;;;;;10.27;44.92;98796.28;5092683;28;20028;-79
2021/01/22 05:10:34;;;;;;;11.33;5.20;;;;;;;10.48;44.28;98798.66;5093021;28;20107;-81
2021/01/22 05:13:01;;;;;;;10.10;5.70;;;;;;;10.59;44.18;98801.63;5091642;28;20048;-79
2021/01/22 05:15:27;;;;;;;12.93;5.70;;;;;;;10.48;44.51;98793.22;5093041;28;20028;-78
2021/01/22 05:18:02;;;;;;;15.00;6.00;;;;;;;10.39;44.69;98798.88;5092737;28;20032;-79
2021/01/22 05:20:38;;;;;;;12.53;4.83;;;;;;;10.27;44.77;98807.19;5093185;28;20081;-77
2021/01/22 05:23:06;;;;;;;9.33;4.87;;;;;;;10.21;45.06;98805.88;5092402;28;20032;-78
2021/01/22 05:25:32;;;;;;;10.60;5.10;;;;;;;10.33;44.82;98807.72;5092880;28;20039;-80
2021/01/22 05:27:59;;;;;;;8.90;4.97;;;;;;;10.47;44.62;98813.47;5092835;28;20359;-77
2021/01/22 05:30:27;;;;;;;13.13;4.67;;;;;;;10.53;44.40;98812.84;5090490;28;20107;-81
2021/01/22 05:32:53;;;;;;;14.10;5.43;;;;;;;10.48;44.34;98810.38;5092632;28;20027;-77
2021/01/22 05:35:36;;;;;;;13.00;4.87;;;;;;;10.38;44.87;98816.41;5092202;28;20028;-77
2021/01/22 05:38:01;;;;;;;12.87;5.40;;;;;;;10.38;44.84;98805.50;5091981;28;20043;-77
2021/01/22 05:40:27;;;;;;;10.30;4.87;;;;;;;10.44;44.81;98809.53;5091527;28;20032;-77
2021/01/22 05:42:57;;;;;;;13.40;5.70;;;;;;;10.50;44.55;98816.28;5074125;28;20127;-78
2021/01/22 05:45:41;;;;;;;18.63;6.00;;;;;;;10.45;44.78;98815.78;5092546;28;20031;-77
2021/01/22 05:48:21;;;;;;;14.93;5.83;;;;;;;10.44;44.77;98817.72;5092473;28;20676;-77
2021/01/22 05:50:55;;;;;;;9.20;4.63;;;;;;;10.47;44.57;98819.72;5091925;28;20031;-80
2021/01/22 05:53:22;;;;;;;9.37;5.07;;;;;;;10.44;44.50;98825.91;5092475;28;20110;-78
2021/01/22 05:56:05;;;;;;;13.03;5.27;;;;;;;10.42;44.66;98828.19;5091088;28;20035;-77
2021/01/22 05:58:31;;;;;;;13.70;5.43;;;;;;;10.41;44.75;98829.34;5090750;28;20034;-77
2021/01/22 06:01:05;;;;;;;15.07;6.37;;;;;;;10.31;45.11;98832.66;5090944;28;20024;-80
2021/01/22 06:03:30;;;;;;;19.17;6.67;;;;;;;10.42;44.84;98833.66;5091253;28;20024;-77
2021/01/22 06:05:56;;;;;;;21.70;8.73;;;;;;;10.33;45.05;98835.81;5091223;28;20032;-77
2021/01/22 06:08:22;;;;;;;15.57;5.97;;;;;;;10.31;45.03;98835.38;5092439;28;20036;-77
2021/01/22 06:10:50;;;;;;;21.63;8.77;;;;;;;10.38;44.57;98843.72;5092116;28;20043;-78
2021/01/22 06:13:21;;;;;;;15.80;5.57;;;;;;;10.40;44.63;98844.16;5095624;28;20519;-79
2021/01/22 06:15:46;;;;;;;18.47;5.90;;;;;;;10.46;44.54;98848.19;5096632;28;20032;-77
2021/01/22 06:18:16;;;;;;;11.40;6.00;;;;;;;10.34;44.98;98852.97;5094031;28;20035;-77
2021/01/22 06:20:45;;;;;;;14.48;6.43;;;;;;;10.21;45.30;98849.56;5095832;28;20386;-76
2021/01/22 06:23:13;;;;;;;12.38;6.13;;;;;;;10.24;45.10;98848.88;5095300;28;20390;-76
2021/01/22 06:25:40;;;;;;;13.47;6.23;;;;;;;10.24;45.17;98854.31;5095954;28;20078;-77
2021/01/22 06:28:07;;;;;;;19.40;6.80;;;;;;;10.19;45.05;98857.28;5094990;28;20107;-76
2021/01/22 06:30:35;;;;;;;25.07;8.00;;;;;;;10.21;45.21;98857.75;5093522;28;20556;-76
2021/01/22 06:33:02;;;;;;;15.43;5.70;;;;;;;10.23;45.10;98869.91;5095564;28;20078;-79
2021/01/22 06:35:30;;;;;;;13.13;5.77;;;;;;;10.23;44.97;98866.41;5094433;28;20463;-77
2021/01/22 06:37:57;;;;;;;14.43;6.23;;;;;;;10.17;45.13;98870.50;5095229;28;20032;-77
2021/01/22 06:40:24;;;;;;;18.43;6.30;;;;;;;10.23;44.84;98859.00;5095135;28;20494;-80
2021/01/22 06:42:51;;;;;;;15.10;6.70;;;;;;;9.94;45.79;98864.91;5093596;28;20112;-81
2021/01/22 06:45:21;;;;;;;20.70;6.37;;;;;;;9.84;46.25;98868.97;5095848;28;20027;-79
2021/01/22 06:48:07;;;;;;;14.40;5.83;;;;;;;9.54;46.84;98881.47;5093154;28;20036;-78
2021/01/22 06:50:35;;;;;;;12.80;5.37;;;;;;;9.63;46.98;98879.34;5094090;28;20062;-80
2021/01/22 06:53:17;;;;;;;15.87;6.07;;;;;;;9.63;46.87;98884.81;5095487;28;20395;-81
2021/01/22 06:55:51;;;;;;;16.03;6.40;;;;;;;9.82;46.50;98887.63;5093601;28;20040;-80
2021/01/22 06:58:25;;;;;;;16.37;6.37;;;;;;;9.60;47.12;98886.31;5095860;28;20470;-80
2021/01/22 07:00:54;;;;;;;16.00;6.47;;;;;;;9.67;47.01;98882.94;5092358;28;20024;-80
2021/01/22 07:03:45;;;;;;;13.65;6.65;;;;;;;9.70;46.83;98890.44;5077510;28;20406;-77
2021/01/22 07:06:35;;;;;;;19.20;7.37;;;;;;;9.72;46.66;98899.06;5095279;28;20117;-77
2021/01/22 07:09:01;;;;;;;13.05;5.88;;;;;;;9.86;46.39;98899.41;5094970;28;20024;-80
2021/01/22 07:11:51;;;;;;;10.77;6.17;;;;;;;9.83;46.23;98902.84;5095307;28;20028;-79
2021/01/22 07:14:36;;;;;;;14.18;7.85;;;;;;;9.65;46.61;98907.06;5068214;28;20131;-81
2021/01/22 07:17:03;;;;;;;21.00;7.20;;;;;;;9.74;46.57;98915.84;5094185;28;20477;-77
2021/01/22 07:19:31;;;;;;;14.10;6.57;;;;;;;9.57;46.95;98913.47;5095129;28;20027;-78
2021/01/22 07:21:58;;;;;;;25.27;7.83;;;;;;;9.69;46.33;98916.13;5093863;28;20056;-77
2021/01/22 07:24:25;;;;;;;12.77;6.00;;;;;;;9.55;46.84;98908.38;5095148;28;20462;-78
2021/01/22 07:26:53;;;;;;;13.10;6.13;;;;;;;9.73;46.73;98912.34;5094280;28;20028;-77
2021/01/22 07:29:29;;;;;;;10.53;5.23;;;;;;;9.61;46.69;98919.81;5095240;28;20065;-81
2021/01/22 07:32:01;;;;;;;13.43;5.80;;;;;;;9.80;46.37;98917.19;5093818;28;20063;-76
2021/01/22 07:34:46;;;;;;;19.07;6.67;;;;;;;9.80;46.42;98924.56;5094532;28;20111;-81
2021/01/22 07:37:25;;;;;;;16.40;5.80;;;;;;;9.79;46.22;98929.25;5092857;28;20542;-77
2021/01/22 07:39:53;;;;;;;13.50;5.73;;;;;;;9.68;46.29;98922.75;5094619;28;20640;-78
2021/01/22 07:42:23;;;;;;;11.07;5.83;;;;;;;9.80;46.37;98933.56;5093317;28;20027;-78
2021/01/22 07:44:51;;;;;;;10.83;6.23;;;;;;;9.85;46.23;98927.84;5099090;28;20370;-78
2021/01/22 07:47:25;;;;;;;10.40;4.83;;;;;;;9.67;46.39;98929.31;5095928;28;20056;-81
2021/01/22 07:49:56;;;;;;;12.43;5.23;;;;;;;9.82;46.00;98931.25;5092478;28;20481;-81
2021/01/22 07:52:23;;;;;;;17.50;5.63;;;;;;;9.89;46.00;98933.38;5096506;28;20482;-77
2021/01/22 07:54:50;;;;;;;15.43;5.63;;;;;;;9.93;45.75;98937.78;5097020;28;20024;-77
2021/01/22 07:57:21;;;;;;;14.57;5.20;;;;;;;9.97;45.53;98941.41;5085712;28;20104;-78
2021/01/22 07:59:48;;;;;;;10.80;5.90;;;;;;;10.03;45.46;98933.72;5098079;28;20028;-78
2021/01/22 08:02:20;;;;;;;15.20;5.83;;;;;;;9.93;45.97;98943.25;5102447;28;20067;-79
2021/01/22 08:04:57;;;;;;;13.63;5.83;;;;;;;9.89;45.82;98944.28;5092342;28;20058;-78
2021/01/22 08:07:39;;;;;;;12.03;5.37;;;;;;;9.91;45.94;98947.47;5080731;28;20421;-78
2021/01/22 08:10:10;;;;;;;12.23;5.37;;;;;;;9.88;45.78;98945.44;5092293;28;20060;-79
2021/01/22 08:12:38;;;;;;;15.53;5.97;;;;;;;9.87;45.85;98952.81;5090994;28;20048;-77
2021/01/22 08:15:18;;;;;;;114.70;67.33;;;;;;;9.76;46.27;98961.91;5074992;28;20024;-79
2021/01/22 08:17:48;;;;;;;12.68;6.18;;;;;;;9.80;46.08;98966.28;5072939;28;20051;-79
2021/01/22 08:20:15;;;;;;;11.07;6.40;;;;;;;9.85;45.52;98965.25;5091129;28;20681;-80
2021/01/22 08:22:41;;;;;;;10.30;5.40;;;;;;;9.88;46.05;98965.31;5092827;28;20174;-80
2021/01/22 08:25:08;;;;;;;14.87;4.63;;;;;;;9.86;46.32;98967.63;5099316;28;20502;-76
2021/01/22 08:27:34;;;;;;;12.20;6.20;;;;;;;9.89;46.11;98972.34;5100449;28;20051;-81
2021/01/22 08:30:00;;;;;;;18.33;11.77;;;;;;;9.96;45.76;98975.25;5083283;28;20032;-78
2021/01/22 08:32:28;;;;;;;19.90;7.10;;;;;;;9.80;46.11;98976.41;5075284;28;20024;-80
2021/01/22 08:34:55;;;;;;;12.73;7.90;;;;;;;9.83;46.42;98979.25;5073754;28;20036;-75
2021/01/22 08:37:21;;;;;;;12.87;5.77;;;;;;;9.85;46.86;98978.88;5075292;28;20085;-77
2021/01/22 08:39:58;;;;;;;9.20;4.87;;;;;;;9.90;46.38;98982.16;5093686;28;20020;-78
2021/01/22 08:42:24;;;;;;;12.50;4.70;;;;;;;9.96;46.18;98986.19;5096310;28;20028;-78
2021/01/22 08:45:10;;;;;;;18.37;6.17;;;;;;;10.01;46.33;98976.94;5104033;28;20043;-77
2021/01/22 08:47:42;;;;;;;16.43;10.00;;;;;;;10.01;46.04;98982.41;5093071;28;20036;-76
2021/01/22 08:50:08;;;;;;;9.33;4.30;;;;;;;9.96;46.60;98975.25;5102175;28;20416;-76
2021/01/22 08:52:34;;;;;;;9.17;4.97;;;;;;;10.01;46.73;98987.88;5079115;28;20028;-77
2021/01/22 08:54:59;;;;;;;17.17;11.63;;;;;;;9.99;46.60;98988.22;5104916;28;20485;-78
2021/01/22 08:57:27;;;;;;;19.93;16.70;;;;;;;10.06;46.28;98982.16;5092447;28;20113;-78
2021/01/22 08:59:54;;;;;;;33.97;28.17;;;;;;;10.11;46.44;98978.34;5090364;28;20110;-77
2021/01/22 09:02:39;;;;;;;6.30;4.30;;;;;;;9.87;47.24;98982.84;5107991;28;20564;-76
2021/01/22 09:05:07;;;;;;;10.93;5.73;;;;;;;10.12;46.49;98988.13;5111534;28;20088;-75
2021/01/22 09:07:33;;;;;;;7.27;5.20;;;;;;;10.09;46.75;98989.63;5090514;28;20028;-77
2021/01/22 09:09:59;;;;;;;20.53;14.57;;;;;;;10.42;46.04;98992.00;5088640;28;20111;-75
2021/01/22 09:12:28;;;;;;;12.27;6.13;;;;;;;10.20;46.46;98995.34;5096469;28;20115;-75
2021/01/22 09:15:02;;;;;;;12.70;6.90;;;;;;;10.25;46.78;98993.19;5090462;28;20504;-77
2021/01/22 09:17:39;;;;;;;23.00;8.80;;;;;;;10.37;46.24;98995.03;5089360;28;20028;-76
2021/01/22 09:20:08;;;;;;;14.13;5.97;;;;;;;10.37;46.49;98995.03;5093641;28;20036;-79
2021/01/22 09:22:35;;;;;;;12.77;6.00;;;;;;;10.23;47.11;99000.13;5090995;28;20107;-76
2021/01/22 09:25:03;;;;;;;13.73;5.53;;;;;;;10.44;46.64;98997.94;5089917;28;20051;-78
2021/01/22 09:27:29;;;;;;;7.67;4.93;;;;;;;10.43;46.50;98998.28;5090785;28;20032;-79
2021/01/22 09:29:55;;;;;;;13.03;5.97;;;;;;;10.28;46.90;99002.63;5087663;28;20099;-77
2021/01/22 09:32:21;;;;;;;12.80;5.20;;;;;;;10.33;47.04;99010.53;5072577;28;20113;-76
2021/01/22 09:34:47;;;;;;;8.07;4.93;;;;;;;10.45;46.71;98999.50;5093126;28;20027;-86
2021/01/22 09:37:12;;;;;;;11.50;5.20;;;;;;;10.58;46.54;99011.13;5094741;28;20055;-81
2021/01/22 09:39:38;;;;;;;12.03;5.60;;;;;;;10.68;46.46;99015.25;5091194;28;20063;-84
2021/01/22 09:42:05;;;;;;;18.53;7.00;;;;;;;10.64;46.51;99015.16;5091363;28;20020;-80
2021/01/22 09:44:31;;;;;;;23.00;21.03;;;;;;;10.73;46.55;99014.97;5091988;28;20085;-82
2021/01/22 09:46:56;;;;;;;12.57;10.37;;;;;;;10.78;46.56;99020.16;5087817;28;20429;-83
2021/01/22 09:49:22;;;;;;;18.90;11.87;;;;;;;10.77;46.67;99024.84;5093221;28;20056;-82
2021/01/22 09:51:48;;;;;;;9.53;6.57;;;;;;;10.69;46.88;99020.34;5092742;28;20066;-81
2021/01/22 09:54:13;;;;;;;64.87;46.33;;;;;;;10.88;46.51;99029.75;5073357;28;20028;-85
2021/01/22 09:56:39;;;;;;;21.37;15.40;;;;;;;10.79;46.74;99027.19;5091852;28;20078;-83
2021/01/22 09:59:06;;;;;;;35.10;20.23;;;;;;;11.07;46.07;99030.56;5074130;28;20119;-79
2021/01/22 10:01:33;;;;;;;61.83;35.83;;;;;;;11.14;45.94;99038.16;5080153;28;20032;-81
2021/01/22 10:03:59;;;;;;;66.70;50.97;;;;;;;11.08;46.35;99040.34;5056648;28;20513;-90
2021/01/22 10:06:24;;;;;;;11.67;9.40;;;;;;;11.09;46.32;99039.19;5055284;28;20029;-83
2021/01/22 10:08:50;;;;;;;13.07;6.10;;;;;;;11.24;45.86;99040.31;5071909;28;20028;-85
2021/01/22 10:11:16;;;;;;;9.83;5.77;;;;;;;11.22;46.21;99044.56;5077433;28;20028;-83
2021/01/22 10:13:42;;;;;;;9.27;6.77;;;;;;;11.39;45.58;99038.66;5088563;28;20106;-84
2021/01/22 10:16:07;;;;;;;10.47;6.03;;;;;;;11.40;45.66;99038.28;5056603;28;20468;-79
2021/01/22 10:18:33;;;;;;;8.10;5.17;;;;;;;11.08;46.56;99040.34;5071913;28;20402;-82
2021/01/22 10:20:58;;;;;;;8.97;4.40;;;;;;;11.37;45.83;99046.44;5087970;28;20075;-79
2021/01/22 10:23:24;;;;;;;7.63;4.60;;;;;;;11.28;46.09;99043.91;5071225;28;20059;-75
2021/01/22 10:25:50;;;;;;;8.33;4.43;;;;;;;11.19;46.31;99048.00;5058045;28;20702;-79
2021/01/22 10:28:15;;;;;;;7.33;4.40;;;;;;;11.38;45.84;99048.00;5039842;28;20033;-76
2021/01/22 10:30:41;;;;;;;7.83;4.07;;;;;;;11.47;45.79;99054.06;5039334;28;20049;-77
2021/01/22 10:33:06;;;;;;;8.63;3.80;;;;;;;11.38;46.01;99056.22;5043294;28;20060;-75
2021/01/22 10:35:32;;;;;;;6.13;3.67;;;;;;;11.34;45.86;99058.09;5050432;28;20044;-74
2021/01/22 10:37:57;;;;;;;8.67;3.97;;;;;;;11.43;45.84;99053.22;5050241;28;20075;-74
2021/01/22 10:40:23;;;;;;;6.20;3.70;;;;;;;11.62;45.33;99060.63;5051196;28;20028;-75
2021/01/22 10:42:49;;;;;;;9.10;4.30;;;;;;;11.50;45.47;99056.09;5067215;28;20159;-75
2021/01/22 10:45:14;;;;;;;6.63;3.83;;;;;;;11.70;45.13;99064.28;5058023;28;20436;-76
2021/01/22 10:47:40;;;;;;;7.03;3.87;;;;;;;11.78;45.08;99046.84;5068848;28;20028;-81
2021/01/22 10:50:07;;;;;;;10.77;3.90;;;;;;;11.82;45.10;99064.16;5071088;28;20526;-76
2021/01/22 10:52:33;;;;;;;6.80;3.70;;;;;;;11.70;45.27;99064.28;5055222;28;20025;-75
2021/01/22 10:54:59;;;;;;;11.30;3.80;;;;;;;11.58;45.53;99062.50;5051552;28;20017;-78
2021/01/22 10:57:24;;;;;;;8.90;3.67;;;;;;;11.84;45.08;99064.59;5051632;28;20039;-80
2021/01/22 10:59:50;;;;;;;9.23;4.80;;;;;;;11.60;45.67;99063.72;5061316;28;20090;-84
2021/01/22 11:02:15;;;;;;;9.55;3.55;;;;;;;11.34;46.11;99069.03;5074084;28;20027;-86
2021/01/22 11:04:41;;;;;;;8.25;3.58;;;;;;;11.53;45.89;99076.47;5076253;28;20035;-85
2021/01/22 11:07:07;;;;;;;9.03;4.80;;;;;;;11.72;45.32;99081.16;5075624;28;20032;-82
2021/01/22 11:09:33;;;;;;;21.40;16.13;;;;;;;11.60;45.79;99076.59;5073038;28;20024;-81
2021/01/22 11:12:02;;;;;;;9.03;4.73;;;;;;;11.38;46.14;99075.38;5067133;28;20048;-79
2021/01/22 11:14:28;;;;;;;7.72;3.83;;;;;;;11.67;45.15;99079.47;5097596;28;20502;-85
2021/01/22 11:16:53;;;;;;;12.30;5.40;;;;;;;11.40;45.89;99084.00;5055543;28;20028;-90
2021/01/22 11:19:19;;;;;;;11.63;7.18;;;;;;;11.82;45.02;99080.59;5077033;28;20041;-85
2021/01/22 11:21:45;;;;;;;9.87;5.50;;;;;;;11.80;45.25;99080.97;5095794;28;20020;-87
2021/01/22 11:24:10;;;;;;;111.63;78.80;;;;;;;11.91;44.71;99072.94;5096418;28;20055;-78
2021/01/22 11:26:38;;;;;;;15.80;9.90;;;;;;;11.83;45.27;99077.50;5108849;28;20020;-85
2021/01/22 11:29:04;;;;;;;13.13;6.25;;;;;;;11.91;45.16;99081.94;5067904;28;20020;-82
2021/01/22 11:31:30;;;;;;;14.48;5.00;;;;;;;11.98;44.84;99077.75;5108052;28;20030;-83